sensor_id;sensor_type;location;lat;lon;timestamp;pressure;altitude;pressure_sealevel;temperature;humidity
46394;BME280;32099;53.588;10.176;2023-10-19T00:00:24;99978.69;;;8.09;76.45
46394;BME280;32099;53.588;10.176;2023-10-19T00:02:50;99972.22;;;8.10;76.13
46394;BME280;32099;53.588;10.176;2023-10-19T00:05:18;99965.56;;;8.12;76.70
46394;BME280;32099;53.588;10.176;2023-10-19T00:07:44;99962.00;;;8.12;77.09
46394;BME280;32099;53.588;10.176;2023-10-19T00:10:09;99952.00;;;8.12;76.84
46394;BME280;32099;53.588;10.176;2023-10-19T00:12:35;99943.66;;;8.14;76.51
46394;BME280;32099;53.588;10.176;2023-10-19T00:15:01;99943.84;;;8.12;76.90
46394;BME280;32099;53.588;10.176;2023-10-19T00:17:27;99927.56;;;8.12;76.22
46394;BME280;32099;53.588;10.176;2023-10-19T00:19:52;99931.50;;;8.10;76.37
46394;BME280;32099;53.588;10.176;2023-10-19T00:22:21;99923.34;;;8.10;77.06
46394;BME280;32099;53.588;10.176;2023-10-19T00:24:46;99917.91;;;8.10;76.68
46394;BME280;32099;53.588;10.176;2023-10-19T00:27:12;99922.13;;;8.12;76.77
46394;BME280;32099;53.588;10.176;2023-10-19T00:29:38;99919.03;;;8.15;75.86
46394;BME280;32099;53.588;10.176;2023-10-19T00:32:04;99922.78;;;8.14;76.09
46394;BME280;32099;53.588;10.176;2023-10-19T00:34:30;99918.19;;;8.15;76.44
46394;BME280;32099;53.588;10.176;2023-10-19T00:36:56;99914.66;;;8.14;76.05
46394;BME280;32099;53.588;10.176;2023-10-19T00:39:24;99916.50;;;8.14;76.40
46394;BME280;32099;53.588;10.176;2023-10-19T00:41:51;99905.63;;;8.14;76.83
46394;BME280;32099;53.588;10.176;2023-10-19T00:44:17;99904.59;;;8.15;76.94
46394;BME280;32099;53.588;10.176;2023-10-19T00:46:42;99897.50;;;8.14;76.29
46394;BME280;32099;53.588;10.176;2023-10-19T00:49:09;99894.97;;;8.12;76.98
46394;BME280;32099;53.588;10.176;2023-10-19T00:51:37;99885.13;;;8.11;76.85
46394;BME280;32099;53.588;10.176;2023-10-19T00:54:06;99886.38;;;8.09;76.45
46394;BME280;32099;53.588;10.176;2023-10-19T00:56:40;99880.72;;;8.10;76.17
46394;BME280;32099;53.588;10.176;2023-10-19T00:59:07;99880.94;;;8.09;75.83
46394;BME280;32099;53.588;10.176;2023-10-19T01:01:33;99883.44;;;8.10;76.19
46394;BME280;32099;53.588;10.176;2023-10-19T01:04:00;99878.88;;;8.11;76.81
46394;BME280;32099;53.588;10.176;2023-10-19T01:06:26;99877.00;;;8.11;76.12
46394;BME280;32099;53.588;10.176;2023-10-19T01:08:52;99882.22;;;8.13;75.92
46394;BME280;32099;53.588;10.176;2023-10-19T01:11:18;99888.50;;;8.13;76.48
46394;BME280;32099;53.588;10.176;2023-10-19T01:13:48;99873.25;;;8.12;76.35
46394;BME280;32099;53.588;10.176;2023-10-19T01:16:14;99870.53;;;8.12;76.17
46394;BME280;32099;53.588;10.176;2023-10-19T01:18:40;99857.78;;;8.13;76.67
46394;BME280;32099;53.588;10.176;2023-10-19T01:21:06;99847.59;;;8.15;76.23
46394;BME280;32099;53.588;10.176;2023-10-19T01:23:34;99860.34;;;8.14;76.21
46394;BME280;32099;53.588;10.176;2023-10-19T01:26:00;99847.13;;;8.11;76.67
46394;BME280;32099;53.588;10.176;2023-10-19T01:28:26;99833.53;;;8.11;76.35
46394;BME280;32099;53.588;10.176;2023-10-19T01:30:53;99835.44;;;8.11;76.19
46394;BME280;32099;53.588;10.176;2023-10-19T01:33:19;99823.50;;;8.12;76.29
46394;BME280;32099;53.588;10.176;2023-10-19T01:35:45;99819.75;;;8.13;76.47
46394;BME280;32099;53.588;10.176;2023-10-19T01:38:11;99807.72;;;8.15;77.21
46394;BME280;32099;53.588;10.176;2023-10-19T01:40:39;99808.34;;;8.17;76.55
46394;BME280;32099;53.588;10.176;2023-10-19T01:43:06;99797.88;;;8.14;76.84
46394;BME280;32099;53.588;10.176;2023-10-19T01:45:31;99800.84;;;8.19;76.23
46394;BME280;32099;53.588;10.176;2023-10-19T01:47:57;99797.47;;;8.17;76.47
46394;BME280;32099;53.588;10.176;2023-10-19T01:50:23;99793.09;;;8.16;76.52
46394;BME280;32099;53.588;10.176;2023-10-19T01:52:49;99792.03;;;8.17;76.29
46394;BME280;32099;53.588;10.176;2023-10-19T01:55:15;99787.09;;;8.21;76.35
46394;BME280;32099;53.588;10.176;2023-10-19T01:57:44;99786.25;;;8.21;76.34
46394;BME280;32099;53.588;10.176;2023-10-19T02:00:10;99764.72;;;8.19;75.87
46394;BME280;32099;53.588;10.176;2023-10-19T02:02:37;99778.94;;;8.21;75.77
46394;BME280;32099;53.588;10.176;2023-10-19T02:05:03;99767.88;;;8.23;76.52
46394;BME280;32099;53.588;10.176;2023-10-19T02:07:29;99763.47;;;8.22;76.45
46394;BME280;32099;53.588;10.176;2023-10-19T02:09:55;99756.19;;;8.22;75.67
46394;BME280;32099;53.588;10.176;2023-10-19T02:12:21;99766.00;;;8.23;75.96
46394;BME280;32099;53.588;10.176;2023-10-19T02:14:49;99759.34;;;8.26;75.17
46394;BME280;32099;53.588;10.176;2023-10-19T02:17:15;99744.09;;;8.25;75.27
46394;BME280;32099;53.588;10.176;2023-10-19T02:19:40;99754.75;;;8.26;75.87
46394;BME280;32099;53.588;10.176;2023-10-19T02:22:07;99753.94;;;8.26;75.62
46394;BME280;32099;53.588;10.176;2023-10-19T02:24:33;99752.03;;;8.26;76.05
46394;BME280;32099;53.588;10.176;2023-10-19T02:26:58;99742.03;;;8.27;75.26
46394;BME280;32099;53.588;10.176;2023-10-19T02:29:24;99730.75;;;8.30;76.05
46394;BME280;32099;53.588;10.176;2023-10-19T02:31:52;99744.16;;;8.31;75.69
46394;BME280;32099;53.588;10.176;2023-10-19T02:34:18;99742.28;;;8.32;75.06
46394;BME280;32099;53.588;10.176;2023-10-19T02:36:44;99734.78;;;8.34;74.30
46394;BME280;32099;53.588;10.176;2023-10-19T02:39:11;99677.41;;;8.00;75.02
46394;BME280;32099;53.588;10.176;2023-10-19T02:41:39;99729.56;;;8.32;75.38
46394;BME280;32099;53.588;10.176;2023-10-19T02:44:08;99729.56;;;8.32;75.54
46394;BME280;32099;53.588;10.176;2023-10-19T02:46:34;99734.78;;;8.34;74.99
46394;BME280;32099;53.588;10.176;2023-10-19T02:49:04;99738.16;;;8.36;75.61
46394;BME280;32099;53.588;10.176;2023-10-19T02:51:30;99738.16;;;8.36;74.50
46394;BME280;32099;53.588;10.176;2023-10-19T02:53:56;99736.09;;;8.38;75.56
46394;BME280;32099;53.588;10.176;2023-10-19T02:56:22;99741.31;;;8.40;74.77
46394;BME280;32099;53.588;10.176;2023-10-19T02:58:47;99738.22;;;8.43;75.47
46394;BME280;32099;53.588;10.176;2023-10-19T03:01:13;99742.41;;;8.45;74.91
46394;BME280;32099;53.588;10.176;2023-10-19T03:03:40;99740.09;;;8.42;74.21
46394;BME280;32099;53.588;10.176;2023-10-19T03:06:09;99740.94;;;8.43;74.58
46394;BME280;32099;53.588;10.176;2023-10-19T03:08:35;99739.91;;;8.44;74.31
46394;BME280;32099;53.588;10.176;2023-10-19T03:11:01;99730.72;;;8.45;74.23
46394;BME280;32099;53.588;10.176;2023-10-19T03:13:27;99727.16;;;8.44;74.77
46394;BME280;32099;53.588;10.176;2023-10-19T03:15:53;99726.50;;;8.42;73.81
46394;BME280;32099;53.588;10.176;2023-10-19T03:18:19;99713.78;;;8.43;74.49
46394;BME280;32099;53.588;10.176;2023-10-19T03:20:44;99720.69;;;8.45;74.22
46394;BME280;32099;53.588;10.176;2023-10-19T03:23:13;99715.47;;;8.44;74.14
46394;BME280;32099;53.588;10.176;2023-10-19T03:25:39;99714.59;;;8.43;74.38
46394;BME280;32099;53.588;10.176;2023-10-19T03:28:05;99702.91;;;8.43;73.85
46394;BME280;32099;53.588;10.176;2023-10-19T03:30:30;99713.78;;;8.43;74.66
46394;BME280;32099;53.588;10.176;2023-10-19T03:32:56;99711.88;;;8.43;74.79
46394;BME280;32099;53.588;10.176;2023-10-19T03:35:22;99711.88;;;8.43;74.79
46394;BME280;32099;53.588;10.176;2023-10-19T03:37:47;99708.63;;;8.48;74.50
46394;BME280;32099;53.588;10.176;2023-10-19T03:40:16;99698.31;;;8.43;73.91
46394;BME280;32099;53.588;10.176;2023-10-19T03:42:41;99698.31;;;8.43;74.27
46394;BME280;32099;53.588;10.176;2023-10-19T03:45:07;99692.22;;;8.41;74.12
46394;BME280;32099;53.588;10.176;2023-10-19T03:47:34;99698.88;;;8.39;73.86
46394;BME280;32099;53.588;10.176;2023-10-19T03:50:02;99627.97;;;8.05;74.17
46394;BME280;32099;53.588;10.176;2023-10-19T03:52:28;99689.69;;;8.40;75.17
46394;BME280;32099;53.588;10.176;2023-10-19T03:54:53;99684.91;;;8.42;75.27
46394;BME280;32099;53.588;10.176;2023-10-19T03:57:22;99688.47;;;8.42;76.65
46394;BME280;32099;53.588;10.176;2023-10-19T03:59:47;99676.50;;;8.37;77.83
46394;BME280;32099;53.588;10.176;2023-10-19T04:02:13;99680.66;;;8.32;77.83
46394;BME280;32099;53.588;10.176;2023-10-19T04:04:39;99678.06;;;8.24;79.48
46394;BME280;32099;53.588;10.176;2023-10-19T04:07:05;99680.31;;;8.21;79.94
46394;BME280;32099;53.588;10.176;2023-10-19T04:09:31;99681.56;;;8.18;80.68
46394;BME280;32099;53.588;10.176;2023-10-19T04:11:57;99683.16;;;8.12;80.09
46394;BME280;32099;53.588;10.176;2023-10-19T04:14:26;99670.56;;;8.05;80.73
46394;BME280;32099;53.588;10.176;2023-10-19T04:16:52;99673.03;;;7.99;81.19
46394;BME280;32099;53.588;10.176;2023-10-19T04:19:17;99662.34;;;7.98;82.44
46394;BME280;32099;53.588;10.176;2023-10-19T04:21:43;99662.53;;;7.96;81.21
46394;BME280;32099;53.588;10.176;2023-10-19T04:24:09;99657.69;;;7.92;82.15
46394;BME280;32099;53.588;10.176;2023-10-19T04:26:35;99660.78;;;7.88;82.63
46394;BME280;32099;53.588;10.176;2023-10-19T04:29:01;99655.94;;;7.84;82.25
46394;BME280;32099;53.588;10.176;2023-10-19T04:31:29;99654.63;;;7.80;84.09
46394;BME280;32099;53.588;10.176;2023-10-19T04:33:55;99652.50;;;7.75;82.54
46394;BME280;32099;53.588;10.176;2023-10-19T04:36:21;99660.19;;;7.71;83.63
46394;BME280;32099;53.588;10.176;2023-10-19T04:38:47;99654.97;;;7.70;85.19
46394;BME280;32099;53.588;10.176;2023-10-19T04:41:12;99651.38;;;7.69;84.97
46394;BME280;32099;53.588;10.176;2023-10-19T04:43:38;99646.16;;;7.68;84.79
46394;BME280;32099;53.588;10.176;2023-10-19T04:46:06;99637.56;;;7.64;84.38
46394;BME280;32099;53.588;10.176;2023-10-19T04:48:38;99645.22;;;7.61;85.27
46394;BME280;32099;53.588;10.176;2023-10-19T04:51:04;99638.31;;;7.58;84.28
46394;BME280;32099;53.588;10.176;2023-10-19T04:53:30;99596.69;;;7.29;85.14
46394;BME280;32099;53.588;10.176;2023-10-19T04:55:56;99648.34;;;7.57;85.54
46394;BME280;32099;53.588;10.176;2023-10-19T04:58:22;99656.66;;;7.56;86.71
46394;BME280;32099;53.588;10.176;2023-10-19T05:00:47;99643.28;;;7.54;85.28
46394;BME280;32099;53.588;10.176;2023-10-19T05:03:13;99639.09;;;7.52;85.58
46394;BME280;32099;53.588;10.176;2023-10-19T05:05:41;99644.59;;;7.44;85.72
46394;BME280;32099;53.588;10.176;2023-10-19T05:08:07;99643.50;;;7.38;87.74
46394;BME280;32099;53.588;10.176;2023-10-19T05:10:32;99637.44;;;7.36;87.64
46394;BME280;32099;53.588;10.176;2023-10-19T05:12:58;99632.00;;;7.36;86.50
46394;BME280;32099;53.588;10.176;2023-10-19T05:15:24;99627.41;;;7.36;87.53
46394;BME280;32099;53.588;10.176;2023-10-19T05:17:50;99620.09;;;7.37;87.32
46394;BME280;32099;53.588;10.176;2023-10-19T05:20:16;99621.34;;;7.34;87.93
46394;BME280;32099;53.588;10.176;2023-10-19T05:22:44;99622.56;;;7.32;87.14
46394;BME280;32099;53.588;10.176;2023-10-19T05:25:10;99607.97;;;7.33;87.05
46394;BME280;32099;53.588;10.176;2023-10-19T05:27:37;99610.13;;;7.37;87.34
46394;BME280;32099;53.588;10.176;2023-10-19T05:30:03;99608.44;;;7.36;87.24
46394;BME280;32099;53.588;10.176;2023-10-19T05:32:30;99608.44;;;7.36;86.61
46394;BME280;32099;53.588;10.176;2023-10-19T05:34:56;99604.03;;;7.35;87.41
46394;BME280;32099;53.588;10.176;2023-10-19T05:37:21;99596.56;;;7.37;87.71
46394;BME280;32099;53.588;10.176;2023-10-19T05:39:50;99596.28;;;7.32;88.13
46394;BME280;32099;53.588;10.176;2023-10-19T05:42:16;99590.22;;;7.30;87.85
46394;BME280;32099;53.588;10.176;2023-10-19T05:44:41;99591.06;;;7.31;86.75
46394;BME280;32099;53.588;10.176;2023-10-19T05:47:07;99596.28;;;7.32;87.70
46394;BME280;32099;53.588;10.176;2023-10-19T05:49:33;99591.69;;;7.33;88.25
46394;BME280;32099;53.588;10.176;2023-10-19T05:51:58;99592.06;;;7.30;89.11
46394;BME280;32099;53.588;10.176;2023-10-19T05:54:24;99594.41;;;7.33;87.76
46394;BME280;32099;53.588;10.176;2023-10-19T05:56:53;99594.41;;;7.33;87.74
46394;BME280;32099;53.588;10.176;2023-10-19T05:59:18;99585.81;;;7.29;87.06
46394;BME280;32099;53.588;10.176;2023-10-19T06:01:44;99591.06;;;7.31;86.15
46394;BME280;32099;53.588;10.176;2023-10-19T06:04:09;99581.22;;;7.30;88.87
46394;BME280;32099;53.588;10.176;2023-10-19T06:06:35;99586.00;;;7.28;87.00
46394;BME280;32099;53.588;10.176;2023-10-19T06:09:01;99591.69;;;7.33;87.34
46394;BME280;32099;53.588;10.176;2023-10-19T06:11:28;99586.06;;;7.34;86.80
46394;BME280;32099;53.588;10.176;2023-10-19T06:13:56;99587.50;;;7.30;88.51
46394;BME280;32099;53.588;10.176;2023-10-19T06:16:22;99583.94;;;7.30;87.88
46394;BME280;32099;53.588;10.176;2023-10-19T06:18:48;99574.97;;;7.29;87.52
46394;BME280;32099;53.588;10.176;2023-10-19T06:21:16;99575.81;;;7.30;87.91
46394;BME280;32099;53.588;10.176;2023-10-19T06:23:42;99568.69;;;7.29;86.95
46394;BME280;32099;53.588;10.176;2023-10-19T06:26:08;99559.75;;;7.28;88.78
46394;BME280;32099;53.588;10.176;2023-10-19T06:28:34;99571.25;;;7.30;86.64
46394;BME280;32099;53.588;10.176;2023-10-19T06:31:03;99571.25;;;7.30;89.13
46394;BME280;32099;53.588;10.176;2023-10-19T06:33:28;99570.13;;;7.24;88.37
46394;BME280;32099;53.588;10.176;2023-10-19T06:35:54;99574.03;;;7.22;88.75
46394;BME280;32099;53.588;10.176;2023-10-19T06:38:20;99571.97;;;7.24;90.40
46394;BME280;32099;53.588;10.176;2023-10-19T06:40:45;99569.47;;;7.22;90.21
46394;BME280;32099;53.588;10.176;2023-10-19T06:43:11;99566.09;;;7.20;89.67
46394;BME280;32099;53.588;10.176;2023-10-19T06:45:37;99579.28;;;7.23;90.28
46394;BME280;32099;53.588;10.176;2023-10-19T06:48:06;99578.63;;;7.21;89.78
46394;BME280;32099;53.588;10.176;2023-10-19T06:50:32;99573.38;;;7.20;90.20
46394;BME280;32099;53.588;10.176;2023-10-19T06:52:58;99574.59;;;7.17;89.46
46394;BME280;32099;53.588;10.176;2023-10-19T06:55:23;99577.31;;;7.17;90.15
46394;BME280;32099;53.588;10.176;2023-10-19T06:57:50;99590.50;;;7.20;89.34
46394;BME280;32099;53.588;10.176;2023-10-19T07:00:17;99587.59;;;7.22;90.75
46394;BME280;32099;53.588;10.176;2023-10-19T07:02:44;99592.19;;;7.21;89.78
46394;BME280;32099;53.588;10.176;2023-10-19T07:05:12;99585.53;;;7.24;89.96
46394;BME280;32099;53.588;10.176;2023-10-19T07:07:39;99594.78;;;7.30;89.24
46394;BME280;32099;53.588;10.176;2023-10-19T07:10:06;99588.34;;;7.31;90.08
46394;BME280;32099;53.588;10.176;2023-10-19T07:12:32;99591.50;;;7.34;90.29
46394;BME280;32099;53.588;10.176;2023-10-19T07:14:58;99586.53;;;7.38;90.36
46394;BME280;32099;53.588;10.176;2023-10-19T07:17:24;99584.03;;;7.36;90.40
46394;BME280;32099;53.588;10.176;2023-10-19T07:19:49;99584.59;;;7.32;89.65
46394;BME280;32099;53.588;10.176;2023-10-19T07:22:18;99586.28;;;7.33;89.96
46394;BME280;32099;53.588;10.176;2023-10-19T07:24:43;99580.47;;;7.36;90.56
46394;BME280;32099;53.588;10.176;2023-10-19T07:27:09;99580.09;;;7.39;89.36
46394;BME280;32099;53.588;10.176;2023-10-19T07:29:35;99584.31;;;7.41;90.67
46394;BME280;32099;53.588;10.176;2023-10-19T07:32:00;99575.50;;;7.39;89.97
46394;BME280;32099;53.588;10.176;2023-10-19T07:34:26;99576.16;;;7.41;89.65
46394;BME280;32099;53.588;10.176;2023-10-19T07:36:51;99580.94;;;7.39;89.80
46394;BME280;32099;53.588;10.176;2023-10-19T07:39:20;99590.75;;;7.40;90.21
46394;BME280;32099;53.588;10.176;2023-10-19T07:41:45;99587.03;;;7.41;90.53
46394;BME280;32099;53.588;10.176;2023-10-19T07:44:11;99594.28;;;7.41;89.84
46394;BME280;32099;53.588;10.176;2023-10-19T07:46:37;99588.88;;;7.41;89.87
46394;BME280;32099;53.588;10.176;2023-10-19T07:49:03;99586.81;;;7.43;90.63
46394;BME280;32099;53.588;10.176;2023-10-19T07:51:28;99585.97;;;7.43;91.47
46394;BME280;32099;53.588;10.176;2023-10-19T07:53:54;99584.69;;;7.38;91.70
46394;BME280;32099;53.588;10.176;2023-10-19T07:56:22;99586.53;;;7.38;90.59
46394;BME280;32099;53.588;10.176;2023-10-19T07:58:48;99585.72;;;7.37;91.14
46394;BME280;32099;53.588;10.176;2023-10-19T08:01:14;99585.72;;;7.37;91.22
46394;BME280;32099;53.588;10.176;2023-10-19T08:03:39;99581.69;;;7.33;91.22
46394;BME280;32099;53.588;10.176;2023-10-19T08:06:05;99564.13;;;7.29;92.27
46394;BME280;32099;53.588;10.176;2023-10-19T08:08:31;99570.75;;;7.26;93.27
46394;BME280;32099;53.588;10.176;2023-10-19T08:10:56;99561.34;;;7.22;91.15
46394;BME280;32099;53.588;10.176;2023-10-19T08:13:25;99556.56;;;7.24;91.31
46394;BME280;32099;53.588;10.176;2023-10-19T08:15:50;99556.00;;;7.29;92.31
46394;BME280;32099;53.588;10.176;2023-10-19T08:18:16;99566.00;;;7.29;92.43
46394;BME280;32099;53.588;10.176;2023-10-19T08:20:42;99562.91;;;7.32;92.30
46394;BME280;32099;53.588;10.176;2023-10-19T08:23:07;99562.03;;;7.31;93.28
46394;BME280;32099;53.588;10.176;2023-10-19T08:25:33;99568.69;;;7.29;93.97
46394;BME280;32099;53.588;10.176;2023-10-19T08:27:59;99557.69;;;7.30;92.05
46394;BME280;32099;53.588;10.176;2023-10-19T08:30:27;99556.81;;;7.30;91.83
46394;BME280;32099;53.588;10.176;2023-10-19T08:32:53;99553.28;;;7.29;92.71
46394;BME280;32099;53.588;10.176;2023-10-19T08:35:19;99549.53;;;7.30;93.63
46394;BME280;32099;53.588;10.176;2023-10-19T08:37:45;99542.25;;;7.31;91.33
46394;BME280;32099;53.588;10.176;2023-10-19T08:40:11;99550.81;;;7.34;92.51
46394;BME280;32099;53.588;10.176;2023-10-19T08:42:38;99538.75;;;7.37;93.98
46394;BME280;32099;53.588;10.176;2023-10-19T08:45:04;99535.88;;;7.38;91.69
46394;BME280;32099;53.588;10.176;2023-10-19T08:47:32;99539.22;;;7.40;92.70
46394;BME280;32099;53.588;10.176;2023-10-19T08:49:58;99544.06;;;7.45;92.43
46394;BME280;32099;53.588;10.176;2023-10-19T08:52:24;99552.22;;;7.45;93.50
46394;BME280;32099;53.588;10.176;2023-10-19T08:54:52;99562.03;;;7.46;91.94
46394;BME280;32099;53.588;10.176;2023-10-19T08:57:18;99555.38;;;7.49;91.95
46394;BME280;32099;53.588;10.176;2023-10-19T08:59:44;99544.31;;;7.50;93.67
46394;BME280;32099;53.588;10.176;2023-10-19T09:02:10;99560.22;;;7.53;93.16
46394;BME280;32099;53.588;10.176;2023-10-19T09:04:43;99558.16;;;7.55;93.49
46394;BME280;32099;53.588;10.176;2023-10-19T09:07:12;99560.88;;;7.55;94.49
46394;BME280;32099;53.588;10.176;2023-10-19T09:09:38;99556.03;;;7.51;94.44
46394;BME280;32099;53.588;10.176;2023-10-19T09:12:04;99551.44;;;7.51;94.29
46394;BME280;32099;53.588;10.176;2023-10-19T09:14:31;99563.13;;;7.52;94.60
46394;BME280;32099;53.588;10.176;2023-10-19T09:16:57;99569.00;;;7.55;95.20
46394;BME280;32099;53.588;10.176;2023-10-19T09:19:34;99571.44;;;7.50;93.89
46394;BME280;32099;53.588;10.176;2023-10-19T09:22:07;99577.16;;;7.55;94.26
46394;BME280;32099;53.588;10.176;2023-10-19T09:24:33;99574.06;;;7.59;94.68
46394;BME280;32099;53.588;10.176;2023-10-19T09:26:59;99581.72;;;7.55;94.29
46394;BME280;32099;53.588;10.176;2023-10-19T09:29:25;99579.88;;;7.55;94.37
46394;BME280;32099;53.588;10.176;2023-10-19T09:31:50;99579.66;;;7.57;95.22
46394;BME280;32099;53.588;10.176;2023-10-19T09:34:18;99573.78;;;7.53;95.02
46394;BME280;32099;53.588;10.176;2023-10-19T09:36:45;99575.19;;;7.49;94.11
46394;BME280;32099;53.588;10.176;2023-10-19T09:39:13;99562.66;;;7.48;93.91
46394;BME280;32099;53.588;10.176;2023-10-19T09:41:39;99562.66;;;7.48;95.17
46394;BME280;32099;53.588;10.176;2023-10-19T09:44:06;99565.38;;;7.48;94.24
46394;BME280;32099;53.588;10.176;2023-10-19T09:46:34;99570.25;;;7.53;94.03
46394;BME280;32099;53.588;10.176;2023-10-19T09:49:03;99563.22;;;7.59;92.45
46394;BME280;32099;53.588;10.176;2023-10-19T09:51:28;99570.28;;;7.60;92.81
46394;BME280;32099;53.588;10.176;2023-10-19T09:53:55;99570.78;;;7.63;91.74
46394;BME280;32099;53.588;10.176;2023-10-19T09:56:30;99565.97;;;7.65;92.45
46394;BME280;32099;53.588;10.176;2023-10-19T09:59:02;99564.88;;;7.60;93.00
46394;BME280;32099;53.588;10.176;2023-10-19T10:04:32;99551.28;;;7.60;92.66
46394;BME280;32099;53.588;10.176;2023-10-19T10:06:59;99566.75;;;7.59;92.53
46394;BME280;32099;53.588;10.176;2023-10-19T10:09:25;99569.25;;;7.61;92.51
46394;BME280;32099;53.588;10.176;2023-10-19T10:11:54;99580.31;;;7.59;94.32
46394;BME280;32099;53.588;10.176;2023-10-19T10:14:20;99587.16;;;7.55;92.83
46394;BME280;32099;53.588;10.176;2023-10-19T10:16:48;99595.28;;;7.55;94.70
46394;BME280;32099;53.588;10.176;2023-10-19T10:19:25;99589.84;;;7.55;91.58
46394;BME280;32099;53.588;10.176;2023-10-19T10:22:03;99595.75;;;7.59;92.45
46394;BME280;32099;53.588;10.176;2023-10-19T10:24:29;99583.41;;;7.56;93.76
46394;BME280;32099;53.588;10.176;2023-10-19T10:27:01;99575.91;;;7.58;92.84
46394;BME280;32099;53.588;10.176;2023-10-19T10:29:26;99569.25;;;7.61;92.41
46394;BME280;32099;53.588;10.176;2023-10-19T10:31:52;99567.66;;;7.66;91.98
46394;BME280;32099;53.588;10.176;2023-10-19T10:37:07;99557.28;;;7.70;91.09
46394;BME280;32099;53.588;10.176;2023-10-19T10:39:34;99560.16;;;7.68;92.90
46394;BME280;32099;53.588;10.176;2023-10-19T10:42:05;99553.47;;;7.64;92.60
46394;BME280;32099;53.588;10.176;2023-10-19T10:44:38;99494.47;;;7.30;92.01
46394;BME280;32099;53.588;10.176;2023-10-19T10:47:04;99544.53;;;7.70;92.43
46394;BME280;32099;53.588;10.176;2023-10-19T10:49:31;99536.00;;;7.74;93.57
46394;BME280;32099;53.588;10.176;2023-10-19T10:51:56;99533.75;;;7.77;93.67
46394;BME280;32099;53.588;10.176;2023-10-19T10:54:22;99486.66;;;7.41;91.72
46394;BME280;32099;53.588;10.176;2023-10-19T10:56:49;99541.03;;;7.77;92.46
46394;BME280;32099;53.588;10.176;2023-10-19T10:59:17;99538.78;;;7.80;92.30
46394;BME280;32099;53.588;10.176;2023-10-19T11:01:43;99544.66;;;7.84;93.73
46394;BME280;32099;53.588;10.176;2023-10-19T11:04:09;99550.28;;;7.82;92.25
46394;BME280;32099;53.588;10.176;2023-10-19T11:06:48;99551.31;;;7.81;91.98
46394;BME280;32099;53.588;10.176;2023-10-19T11:09:15;99548.78;;;7.80;92.10
46394;BME280;32099;53.588;10.176;2023-10-19T11:11:41;99542.13;;;7.82;91.33
46394;BME280;32099;53.588;10.176;2023-10-19T11:14:10;99542.97;;;7.83;91.13
46394;BME280;32099;53.588;10.176;2023-10-19T11:16:39;99548.63;;;7.81;91.53
46394;BME280;32099;53.588;10.176;2023-10-19T11:19:04;99540.06;;;7.84;92.34
46394;BME280;32099;53.588;10.176;2023-10-19T11:21:30;99534.47;;;7.86;90.99
46394;BME280;32099;53.588;10.176;2023-10-19T11:23:56;99535.72;;;7.90;92.44
46394;BME280;32099;53.588;10.176;2023-10-19T11:26:22;99537.41;;;7.91;92.33
46394;BME280;32099;53.588;10.176;2023-10-19T11:28:56;99550.53;;;7.87;92.52
46394;BME280;32099;53.588;10.176;2023-10-19T11:31:22;99559.34;;;7.90;92.82
46394;BME280;32099;53.588;10.176;2023-10-19T11:33:52;99558.88;;;7.86;91.97
46394;BME280;32099;53.588;10.176;2023-10-19T11:36:19;99567.41;;;7.83;91.24
46394;BME280;32099;53.588;10.176;2023-10-19T11:38:46;99574.31;;;7.85;92.03
46394;BME280;32099;53.588;10.176;2023-10-19T11:41:12;99568.22;;;7.83;92.99
46394;BME280;32099;53.588;10.176;2023-10-19T11:43:39;99556.09;;;7.79;92.97
46394;BME280;32099;53.588;10.176;2023-10-19T11:46:05;99547.09;;;7.79;92.10
46394;BME280;32099;53.588;10.176;2023-10-19T11:48:32;99540.25;;;7.83;92.30
46394;BME280;32099;53.588;10.176;2023-10-19T11:51:01;99521.06;;;7.84;92.87
46394;BME280;32099;53.588;10.176;2023-10-19T11:53:28;99529.22;;;7.84;92.95
46394;BME280;32099;53.588;10.176;2023-10-19T11:55:55;99512.75;;;7.86;92.92
46394;BME280;32099;53.588;10.176;2023-10-19T11:58:20;99505.63;;;7.85;92.65
46394;BME280;32099;53.588;10.176;2023-10-19T12:00:46;99506.66;;;7.84;93.23
46394;BME280;32099;53.588;10.176;2023-10-19T12:03:12;99498.09;;;7.80;92.84
46394;BME280;32099;53.588;10.176;2023-10-19T12:05:37;99494.34;;;7.81;93.67
46394;BME280;32099;53.588;10.176;2023-10-19T12:08:06;99493.69;;;7.79;92.26
46394;BME280;32099;53.588;10.176;2023-10-19T12:10:32;99486.81;;;7.83;93.85
46394;BME280;32099;53.588;10.176;2023-10-19T12:12:57;99484.31;;;7.82;93.45
46394;BME280;32099;53.588;10.176;2023-10-19T12:15:23;99484.31;;;7.82;91.95
46394;BME280;32099;53.588;10.176;2023-10-19T12:17:49;99490.19;;;7.85;91.41
46394;BME280;32099;53.588;10.176;2023-10-19T12:20:14;99490.63;;;7.89;92.28
46394;BME280;32099;53.588;10.176;2023-10-19T12:22:40;99488.94;;;7.88;92.19
46394;BME280;32099;53.588;10.176;2023-10-19T12:25:08;99476.22;;;7.88;91.12
46394;BME280;32099;53.588;10.176;2023-10-19T12:27:34;99451.78;;;7.88;91.47
46394;BME280;32099;53.588;10.176;2023-10-19T12:30:00;99467.28;;;7.95;92.12
46394;BME280;32099;53.588;10.176;2023-10-19T12:32:25;99465.03;;;7.98;91.27
46394;BME280;32099;53.588;10.176;2023-10-19T12:34:51;99468.56;;;7.99;91.77
46394;BME280;32099;53.588;10.176;2023-10-19T12:37:16;99461.72;;;8.03;92.80
46394;BME280;32099;53.588;10.176;2023-10-19T12:39:42;99457.56;;;8.07;92.98
46394;BME280;32099;53.588;10.176;2023-10-19T12:42:10;99473.66;;;8.09;92.65
46394;BME280;32099;53.588;10.176;2023-10-19T12:44:36;99468.69;;;8.12;92.65
46394;BME280;32099;53.588;10.176;2023-10-19T12:47:02;99465.75;;;8.14;92.75
46394;BME280;32099;53.588;10.176;2023-10-19T12:49:28;99465.97;;;8.12;91.82
46394;BME280;32099;53.588;10.176;2023-10-19T12:51:53;99470.94;;;8.09;92.88
46394;BME280;32099;53.588;10.176;2023-10-19T12:54:19;99465.91;;;8.06;92.46
46394;BME280;32099;53.588;10.176;2023-10-19T12:56:44;99457.13;;;8.03;92.13
46394;BME280;32099;53.588;10.176;2023-10-19T12:59:13;99438.75;;;8.06;93.19
46394;BME280;32099;53.588;10.176;2023-10-19T13:01:38;99439.41;;;8.08;92.32